sensor_id;sensor_type;location;lat;lon;timestamp;P1;durP1;ratioP1;P2;durP2;ratioP2
47762;SDS011;33526;42.690;23.322;2022-11-15T00:03:15;172.90;;;78.28;;
47762;SDS011;33526;42.690;23.322;2022-11-15T00:05:42;164.02;;;75.45;;
47762;SDS011;33526;42.690;23.322;2022-11-15T00:08:08;162.52;;;70.43;;
47762;SDS011;33526;42.690;23.322;2022-11-15T00:10:34;158.38;;;73.18;;
47762;SDS011;33526;42.690;23.322;2022-11-15T00:13:00;150.07;;;72.15;;
47762;SDS011;33526;42.690;23.322;2022-11-15T00:15:28;152.57;;;71.30;;
47762;SDS011;33526;42.690;23.322;2022-11-15T00:17:54;153.73;;;69.80;;
47762;SDS011;33526;42.690;23.322;2022-11-15T00:20:19;153.27;;;69.05;;
47762;SDS011;33526;42.690;23.322;2022-11-15T00:22:46;155.52;;;69.45;;
47762;SDS011;33526;42.690;23.322;2022-11-15T00:25:11;154.80;;;69.72;;
47762;SDS011;33526;42.690;23.322;2022-11-15T00:27:37;158.73;;;73.20;;
47762;SDS011;33526;42.690;23.322;2022-11-15T00:30:02;177.57;;;79.50;;
47762;SDS011;33526;42.690;23.322;2022-11-15T00:32:31;164.60;;;74.80;;
47762;SDS011;33526;42.690;23.322;2022-11-15T00:34:57;160.55;;;73.75;;
47762;SDS011;33526;42.690;23.322;2022-11-15T00:37:22;171.48;;;76.95;;
47762;SDS011;33526;42.690;23.322;2022-11-15T00:39:48;171.07;;;75.18;;
47762;SDS011;33526;42.690;23.322;2022-11-15T00:42:13;168.70;;;75.65;;
47762;SDS011;33526;42.690;23.322;2022-11-15T00:44:39;164.18;;;75.63;;
47762;SDS011;33526;42.690;23.322;2022-11-15T00:47:04;166.60;;;72.25;;
47762;SDS011;33526;42.690;23.322;2022-11-15T00:49:29;167.35;;;73.95;;
47762;SDS011;33526;42.690;23.322;2022-11-15T00:51:55;168.70;;;73.13;;
47762;SDS011;33526;42.690;23.322;2022-11-15T00:54:21;175.35;;;76.18;;
47762;SDS011;33526;42.690;23.322;2022-11-15T00:56:46;162.27;;;73.43;;
47762;SDS011;33526;42.690;23.322;2022-11-15T00:59:11;158.30;;;71.28;;
47762;SDS011;33526;42.690;23.322;2022-11-15T01:01:37;162.38;;;72.32;;
47762;SDS011;33526;42.690;23.322;2022-11-15T01:04:02;153.05;;;70.28;;
47762;SDS011;33526;42.690;23.322;2022-11-15T01:06:28;153.75;;;68.38;;
47762;SDS011;33526;42.690;23.322;2022-11-15T01:08:53;157.93;;;72.03;;
47762;SDS011;33526;42.690;23.322;2022-11-15T01:11:18;148.52;;;68.35;;
47762;SDS011;33526;42.690;23.322;2022-11-15T01:13:44;139.48;;;65.90;;
47762;SDS011;33526;42.690;23.322;2022-11-15T01:16:10;152.32;;;66.43;;
47762;SDS011;33526;42.690;23.322;2022-11-15T01:18:39;147.13;;;65.22;;
47762;SDS011;33526;42.690;23.322;2022-11-15T01:21:06;128.63;;;62.55;;
47762;SDS011;33526;42.690;23.322;2022-11-15T01:23:33;145.38;;;65.90;;
47762;SDS011;33526;42.690;23.322;2022-11-15T01:26:02;148.13;;;66.13;;
47762;SDS011;33526;42.690;23.322;2022-11-15T01:28:29;135.75;;;61.60;;
47762;SDS011;33526;42.690;23.322;2022-11-15T01:31:00;146.23;;;64.18;;
47762;SDS011;33526;42.690;23.322;2022-11-15T01:33:27;136.43;;;60.22;;
47762;SDS011;33526;42.690;23.322;2022-11-15T01:35:53;123.53;;;59.22;;
47762;SDS011;33526;42.690;23.322;2022-11-15T01:38:19;135.65;;;58.78;;
47762;SDS011;33526;42.690;23.322;2022-11-15T01:40:44;122.72;;;55.13;;
47762;SDS011;33526;42.690;23.322;2022-11-15T01:43:19;118.80;;;52.25;;
47762;SDS011;33526;42.690;23.322;2022-11-15T01:45:47;125.25;;;55.75;;
47762;SDS011;33526;42.690;23.322;2022-11-15T01:48:17;118.75;;;53.80;;
47762;SDS011;33526;42.690;23.322;2022-11-15T01:50:43;120.25;;;58.05;;
47762;SDS011;33526;42.690;23.322;2022-11-15T01:53:09;131.73;;;58.07;;
47762;SDS011;33526;42.690;23.322;2022-11-15T01:55:35;140.55;;;65.53;;
47762;SDS011;33526;42.690;23.322;2022-11-15T01:58:02;138.10;;;62.80;;
47762;SDS011;33526;42.690;23.322;2022-11-15T02:00:30;142.88;;;66.90;;
47762;SDS011;33526;42.690;23.322;2022-11-15T02:02:56;96.20;;;47.85;;
47762;SDS011;33526;42.690;23.322;2022-11-15T02:05:22;141.57;;;61.58;;
47762;SDS011;33526;42.690;23.322;2022-11-15T02:07:48;131.40;;;59.47;;
47762;SDS011;33526;42.690;23.322;2022-11-15T02:10:17;134.48;;;59.58;;
47762;SDS011;33526;42.690;23.322;2022-11-15T02:12:44;135.07;;;59.83;;
47762;SDS011;33526;42.690;23.322;2022-11-15T02:15:11;133.77;;;59.53;;
47762;SDS011;33526;42.690;23.322;2022-11-15T02:17:42;135.88;;;58.15;;
47762;SDS011;33526;42.690;23.322;2022-11-15T02:23:04;123.80;;;56.05;;
47762;SDS011;33526;42.690;23.322;2022-11-15T02:44:19;112.95;;;50.65;;
47762;SDS011;33526;42.690;23.322;2022-11-15T02:46:51;114.28;;;49.97;;
47762;SDS011;33526;42.690;23.322;2022-11-15T02:49:39;122.13;;;52.20;;
47762;SDS011;33526;42.690;23.322;2022-11-15T02:52:07;115.40;;;51.40;;
47762;SDS011;33526;42.690;23.322;2022-11-15T02:54:33;111.80;;;49.95;;
47762;SDS011;33526;42.690;23.322;2022-11-15T02:57:22;120.05;;;51.25;;
47762;SDS011;33526;42.690;23.322;2022-11-15T03:00:03;116.40;;;51.25;;
47762;SDS011;33526;42.690;23.322;2022-11-15T03:08:30;117.38;;;50.03;;
47762;SDS011;33526;42.690;23.322;2022-11-15T03:16:06;116.78;;;52.03;;
47762;SDS011;33526;42.690;23.322;2022-11-15T03:21:41;120.13;;;52.80;;
47762;SDS011;33526;42.690;23.322;2022-11-15T03:24:08;88.22;;;40.45;;
47762;SDS011;33526;42.690;23.322;2022-11-15T03:26:34;114.68;;;49.47;;
47762;SDS011;33526;42.690;23.322;2022-11-15T03:29:17;103.57;;;48.55;;
47762;SDS011;33526;42.690;23.322;2022-11-15T03:31:48;118.72;;;49.78;;
47762;SDS011;33526;42.690;23.322;2022-11-15T03:36:45;120.20;;;47.80;;
47762;SDS011;33526;42.690;23.322;2022-11-15T03:39:11;87.22;;;37.13;;
47762;SDS011;33526;42.690;23.322;2022-11-15T03:41:49;119.78;;;50.03;;
47762;SDS011;33526;42.690;23.322;2022-11-15T03:47:42;109.47;;;47.10;;
47762;SDS011;33526;42.690;23.322;2022-11-15T03:50:13;119.68;;;48.88;;
47762;SDS011;33526;42.690;23.322;2022-11-15T03:52:42;120.35;;;50.20;;
47762;SDS011;33526;42.690;23.322;2022-11-15T03:55:10;113.22;;;48.20;;
47762;SDS011;33526;42.690;23.322;2022-11-15T03:57:38;123.55;;;47.40;;
47762;SDS011;33526;42.690;23.322;2022-11-15T04:00:04;114.93;;;47.40;;
47762;SDS011;33526;42.690;23.322;2022-11-15T04:02:29;121.72;;;47.22;;
47762;SDS011;33526;42.690;23.322;2022-11-15T04:04:55;118.38;;;45.35;;
47762;SDS011;33526;42.690;23.322;2022-11-15T04:07:20;118.20;;;45.92;;
47762;SDS011;33526;42.690;23.322;2022-11-15T04:09:46;122.63;;;45.03;;
47762;SDS011;33526;42.690;23.322;2022-11-15T04:12:31;115.53;;;45.63;;
47762;SDS011;33526;42.690;23.322;2022-11-15T04:17:38;137.70;;;46.72;;
47762;SDS011;33526;42.690;23.322;2022-11-15T04:20:04;118.63;;;44.65;;
47762;SDS011;33526;42.690;23.322;2022-11-15T04:22:56;134.48;;;48.75;;
47762;SDS011;33526;42.690;23.322;2022-11-15T04:25:42;130.68;;;47.78;;
47762;SDS011;33526;42.690;23.322;2022-11-15T04:28:09;135.65;;;48.90;;
47762;SDS011;33526;42.690;23.322;2022-11-15T04:30:35;135.93;;;47.73;;
47762;SDS011;33526;42.690;23.322;2022-11-15T04:33:00;138.43;;;48.92;;
47762;SDS011;33526;42.690;23.322;2022-11-15T04:35:26;147.10;;;48.60;;
47762;SDS011;33526;42.690;23.322;2022-11-15T04:37:52;151.07;;;49.25;;
47762;SDS011;33526;42.690;23.322;2022-11-15T04:40:17;143.10;;;49.70;;
47762;SDS011;33526;42.690;23.322;2022-11-15T04:42:43;135.18;;;48.95;;
47762;SDS011;33526;42.690;23.322;2022-11-15T04:45:08;148.10;;;50.70;;
47762;SDS011;33526;42.690;23.322;2022-11-15T04:47:34;141.60;;;49.35;;
47762;SDS011;33526;42.690;23.322;2022-11-15T04:50:00;144.55;;;49.80;;
47762;SDS011;33526;42.690;23.322;2022-11-15T04:52:25;166.13;;;51.40;;
47762;SDS011;33526;42.690;23.322;2022-11-15T04:54:51;152.80;;;50.97;;
47762;SDS011;33526;42.690;23.322;2022-11-15T04:57:17;151.98;;;52.17;;
47762;SDS011;33526;42.690;23.322;2022-11-15T04:59:42;160.30;;;51.00;;
47762;SDS011;33526;42.690;23.322;2022-11-15T05:02:08;159.57;;;51.63;;
47762;SDS011;33526;42.690;23.322;2022-11-15T05:04:33;168.18;;;52.97;;
47762;SDS011;33526;42.690;23.322;2022-11-15T05:07:00;157.88;;;53.72;;
47762;SDS011;33526;42.690;23.322;2022-11-15T05:09:25;170.13;;;54.22;;
47762;SDS011;33526;42.690;23.322;2022-11-15T05:11:50;157.98;;;55.28;;
47762;SDS011;33526;42.690;23.322;2022-11-15T05:14:16;165.70;;;53.05;;
47762;SDS011;33526;42.690;23.322;2022-11-15T05:16:42;171.32;;;54.78;;
47762;SDS011;33526;42.690;23.322;2022-11-15T05:19:07;169.73;;;54.65;;
47762;SDS011;33526;42.690;23.322;2022-11-15T05:21:33;167.57;;;54.47;;
47762;SDS011;33526;42.690;23.322;2022-11-15T05:23:59;172.73;;;56.23;;
47762;SDS011;33526;42.690;23.322;2022-11-15T05:26:25;159.65;;;54.42;;
47762;SDS011;33526;42.690;23.322;2022-11-15T05:28:58;152.10;;;51.83;;
47762;SDS011;33526;42.690;23.322;2022-11-15T05:31:24;158.07;;;53.42;;
47762;SDS011;33526;42.690;23.322;2022-11-15T05:33:50;154.73;;;52.80;;
47762;SDS011;33526;42.690;23.322;2022-11-15T05:39:07;141.75;;;51.40;;
47762;SDS011;33526;42.690;23.322;2022-11-15T05:41:35;102.45;;;38.75;;
47762;SDS011;33526;42.690;23.322;2022-11-15T05:44:01;142.88;;;49.95;;
47762;SDS011;33526;42.690;23.322;2022-11-15T05:46:28;137.48;;;50.28;;
47762;SDS011;33526;42.690;23.322;2022-11-15T05:48:54;103.22;;;46.42;;
47762;SDS011;33526;42.690;23.322;2022-11-15T05:51:21;91.70;;;41.05;;
47762;SDS011;33526;42.690;23.322;2022-11-15T05:53:48;79.07;;;36.67;;
47762;SDS011;33526;42.690;23.322;2022-11-15T05:56:14;64.68;;;31.90;;
47762;SDS011;33526;42.690;23.322;2022-11-15T05:58:40;63.15;;;30.75;;
47762;SDS011;33526;42.690;23.322;2022-11-15T06:01:07;68.68;;;31.52;;
47762;SDS011;33526;42.690;23.322;2022-11-15T06:03:32;65.07;;;29.90;;
47762;SDS011;33526;42.690;23.322;2022-11-15T06:05:58;69.57;;;30.52;;
47762;SDS011;33526;42.690;23.322;2022-11-15T06:08:24;75.70;;;35.05;;
47762;SDS011;33526;42.690;23.322;2022-11-15T06:10:49;92.28;;;35.58;;
47762;SDS011;33526;42.690;23.322;2022-11-15T06:13:15;90.53;;;35.47;;
47762;SDS011;33526;42.690;23.322;2022-11-15T06:15:40;98.82;;;37.80;;
47762;SDS011;33526;42.690;23.322;2022-11-15T06:18:06;101.13;;;40.83;;
47762;SDS011;33526;42.690;23.322;2022-11-15T06:20:31;106.15;;;38.17;;
47762;SDS011;33526;42.690;23.322;2022-11-15T06:22:57;101.32;;;37.63;;
47762;SDS011;33526;42.690;23.322;2022-11-15T06:25:27;113.85;;;41.17;;
47762;SDS011;33526;42.690;23.322;2022-11-15T06:27:54;102.05;;;38.53;;
47762;SDS011;33526;42.690;23.322;2022-11-15T06:30:21;101.35;;;40.15;;
47762;SDS011;33526;42.690;23.322;2022-11-15T06:32:47;106.63;;;39.40;;
47762;SDS011;33526;42.690;23.322;2022-11-15T06:35:13;87.47;;;33.38;;
47762;SDS011;33526;42.690;23.322;2022-11-15T06:37:39;103.32;;;35.20;;
47762;SDS011;33526;42.690;23.322;2022-11-15T06:40:06;90.07;;;33.92;;
47762;SDS011;33526;42.690;23.322;2022-11-15T06:42:33;94.80;;;34.08;;
47762;SDS011;33526;42.690;23.322;2022-11-15T06:44:58;105.82;;;36.70;;
47762;SDS011;33526;42.690;23.322;2022-11-15T06:47:24;104.00;;;36.00;;
47762;SDS011;33526;42.690;23.322;2022-11-15T06:49:49;122.18;;;39.13;;
47762;SDS011;33526;42.690;23.322;2022-11-15T06:52:15;102.35;;;37.83;;
47762;SDS011;33526;42.690;23.322;2022-11-15T06:54:43;91.57;;;34.88;;
47762;SDS011;33526;42.690;23.322;2022-11-15T06:57:09;100.15;;;36.85;;
47762;SDS011;33526;42.690;23.322;2022-11-15T06:59:34;95.28;;;37.63;;
47762;SDS011;33526;42.690;23.322;2022-11-15T07:01:59;99.15;;;35.83;;
47762;SDS011;33526;42.690;23.322;2022-11-15T07:04:25;80.18;;;33.80;;
47762;SDS011;33526;42.690;23.322;2022-11-15T07:06:50;88.40;;;33.50;;
47762;SDS011;33526;42.690;23.322;2022-11-15T07:09:16;89.43;;;33.47;;
47762;SDS011;33526;42.690;23.322;2022-11-15T07:11:41;89.65;;;34.95;;
47762;SDS011;33526;42.690;23.322;2022-11-15T07:14:07;84.50;;;32.70;;
47762;SDS011;33526;42.690;23.322;2022-11-15T07:16:32;85.85;;;34.22;;
47762;SDS011;33526;42.690;23.322;2022-11-15T07:18:59;81.77;;;34.80;;
47762;SDS011;33526;42.690;23.322;2022-11-15T07:21:24;84.57;;;35.88;;
47762;SDS011;33526;42.690;23.322;2022-11-15T07:23:49;82.43;;;32.83;;
47762;SDS011;33526;42.690;23.322;2022-11-15T07:26:15;73.70;;;31.45;;
47762;SDS011;33526;42.690;23.322;2022-11-15T07:28:40;79.00;;;32.42;;
47762;SDS011;33526;42.690;23.322;2022-11-15T07:31:06;76.22;;;29.85;;
47762;SDS011;33526;42.690;23.322;2022-11-15T07:33:33;69.90;;;29.58;;
47762;SDS011;33526;42.690;23.322;2022-11-15T07:36:03;76.80;;;29.97;;
47762;SDS011;33526;42.690;23.322;2022-11-15T07:38:33;69.32;;;29.13;;
47762;SDS011;33526;42.690;23.322;2022-11-15T07:41:00;74.78;;;31.63;;
47762;SDS011;33526;42.690;23.322;2022-11-15T07:43:27;68.15;;;29.83;;
47762;SDS011;33526;42.690;23.322;2022-11-15T07:45:54;70.28;;;30.48;;
47762;SDS011;33526;42.690;23.322;2022-11-15T07:48:20;69.53;;;30.95;;
47762;SDS011;33526;42.690;23.322;2022-11-15T07:50:45;70.80;;;30.45;;
47762;SDS011;33526;42.690;23.322;2022-11-15T07:53:11;79.10;;;31.42;;
47762;SDS011;33526;42.690;23.322;2022-11-15T07:55:36;68.95;;;29.70;;
47762;SDS011;33526;42.690;23.322;2022-11-15T07:58:05;77.97;;;31.15;;
47762;SDS011;33526;42.690;23.322;2022-11-15T08:00:35;78.22;;;32.30;;
47762;SDS011;33526;42.690;23.322;2022-11-15T08:03:02;79.65;;;33.83;;
47762;SDS011;33526;42.690;23.322;2022-11-15T08:05:36;74.65;;;32.00;;
47762;SDS011;33526;42.690;23.322;2022-11-15T08:10:28;76.40;;;30.92;;
47762;SDS011;33526;42.690;23.322;2022-11-15T08:13:00;81.53;;;35.20;;
47762;SDS011;33526;42.690;23.322;2022-11-15T08:15:28;80.18;;;33.70;;
47762;SDS011;33526;42.690;23.322;2022-11-15T08:17:58;70.70;;;34.03;;
47762;SDS011;33526;42.690;23.322;2022-11-15T08:20:25;95.15;;;40.50;;
47762;SDS011;33526;42.690;23.322;2022-11-15T08:22:55;81.90;;;34.85;;
47762;SDS011;33526;42.690;23.322;2022-11-15T08:25:25;82.13;;;35.25;;
47762;SDS011;33526;42.690;23.322;2022-11-15T08:27:55;77.30;;;34.15;;
47762;SDS011;33526;42.690;23.322;2022-11-15T08:30:22;79.97;;;35.72;;
47762;SDS011;33526;42.690;23.322;2022-11-15T08:32:49;79.72;;;34.28;;
47762;SDS011;33526;42.690;23.322;2022-11-15T08:35:15;84.28;;;37.42;;
47762;SDS011;33526;42.690;23.322;2022-11-15T08:37:41;81.80;;;35.97;;
47762;SDS011;33526;42.690;23.322;2022-11-15T08:40:07;82.18;;;37.13;;
47762;SDS011;33526;42.690;23.322;2022-11-15T08:42:33;78.43;;;37.83;;
47762;SDS011;33526;42.690;23.322;2022-11-15T08:44:59;84.03;;;36.05;;
47762;SDS011;33526;42.690;23.322;2022-11-15T08:47:24;89.35;;;41.17;;
47762;SDS011;33526;42.690;23.322;2022-11-15T08:49:51;92.78;;;39.85;;
47762;SDS011;33526;42.690;23.322;2022-11-15T08:52:17;93.30;;;42.08;;
47762;SDS011;33526;42.690;23.322;2022-11-15T08:54:43;91.78;;;39.17;;
47762;SDS011;33526;42.690;23.322;2022-11-15T08:57:08;87.38;;;38.65;;
47762;SDS011;33526;42.690;23.322;2022-11-15T08:59:35;90.55;;;40.00;;
47762;SDS011;33526;42.690;23.322;2022-11-15T09:02:01;69.87;;;29.50;;
47762;SDS011;33526;42.690;23.322;2022-11-15T09:04:26;93.70;;;41.30;;
47762;SDS011;33526;42.690;23.322;2022-11-15T09:06:52;94.07;;;41.10;;
47762;SDS011;33526;42.690;23.322;2022-11-15T09:09:17;90.43;;;41.33;;
47762;SDS011;33526;42.690;23.322;2022-11-15T09:11:43;85.25;;;41.28;;
47762;SDS011;33526;42.690;23.322;2022-11-15T09:14:13;93.93;;;41.67;;
47762;SDS011;33526;42.690;23.322;2022-11-15T09:16:38;98.03;;;43.25;;
47762;SDS011;33526;42.690;23.322;2022-11-15T09:19:04;101.50;;;42.42;;
47762;SDS011;33526;42.690;23.322;2022-11-15T09:21:29;122.85;;;49.90;;
47762;SDS011;33526;42.690;23.322;2022-11-15T09:23:55;89.72;;;41.47;;
47762;SDS011;33526;42.690;23.322;2022-11-15T09:26:21;188.25;;;77.00;;
47762;SDS011;33526;42.690;23.322;2022-11-15T09:28:46;157.55;;;70.05;;
47762;SDS011;33526;42.690;23.322;2022-11-15T09:31:12;98.93;;;45.30;;
47762;SDS011;33526;42.690;23.322;2022-11-15T09:33:37;102.40;;;45.45;;
47762;SDS011;33526;42.690;23.322;2022-11-15T09:36:04;106.22;;;46.13;;
47762;SDS011;33526;42.690;23.322;2022-11-15T09:38:32;106.75;;;47.00;;
47762;SDS011;33526;42.690;23.322;2022-11-15T09:46:09;107.93;;;46.67;;
47762;SDS011;33526;42.690;23.322;2022-11-15T09:48:53;109.63;;;49.45;;
47762;SDS011;33526;42.690;23.322;2022-11-15T09:51:35;121.68;;;49.83;;
47762;SDS011;33526;42.690;23.322;2022-11-15T09:57:04;110.38;;;47.45;;
47762;SDS011;33526;42.690;23.322;2022-11-15T10:04:45;110.22;;;50.00;;
47762;SDS011;33526;42.690;23.322;2022-11-15T10:09:57;118.78;;;51.60;;
47762;SDS011;33526;42.690;23.322;2022-11-15T10:12:28;112.43;;;50.22;;
47762;SDS011;33526;42.690;23.322;2022-11-15T10:15:05;111.95;;;50.63;;
47762;SDS011;33526;42.690;23.322;2022-11-15T10:25:26;111.53;;;49.95;;
47762;SDS011;33526;42.690;23.322;2022-11-15T10:30:41;114.15;;;49.83;;
47762;SDS011;33526;42.690;23.322;2022-11-15T10:33:14;110.75;;;49.83;;
47762;SDS011;33526;42.690;23.322;2022-11-15T10:35:42;114.53;;;50.22;;
47762;SDS011;33526;42.690;23.322;2022-11-15T10:38:10;112.05;;;50.08;;
47762;SDS011;33526;42.690;23.322;2022-11-15T10:40:38;115.57;;;50.90;;
47762;SDS011;33526;42.690;23.322;2022-11-15T10:43:06;114.75;;;50.45;;
47762;SDS011;33526;42.690;23.322;2022-11-15T10:45:39;109.72;;;49.17;;
47762;SDS011;33526;42.690;23.322;2022-11-15T10:50:36;115.88;;;51.60;;
47762;SDS011;33526;42.690;23.322;2022-11-15T10:53:10;151.82;;;56.72;;
47762;SDS011;33526;42.690;23.322;2022-11-15T11:00:44;129.75;;;56.22;;
47762;SDS011;33526;42.690;23.322;2022-11-15T11:06:17;132.73;;;56.92;;
47762;SDS011;33526;42.690;23.322;2022-11-15T11:08:56;132.13;;;57.42;;
47762;SDS011;33526;42.690;23.322;2022-11-15T11:11:46;136.68;;;59.33;;
47762;SDS011;33526;42.690;23.322;2022-11-15T11:14:56;142.02;;;61.90;;
47762;SDS011;33526;42.690;23.322;2022-11-15T11:17:05;149.30;;;62.60;;
47762;SDS011;33526;42.690;23.322;2022-11-15T13:39:44;108.38;;;49.72;;
47762;SDS011;33526;42.690;23.322;2022-11-15T13:42:14;111.93;;;51.88;;
47762;SDS011;33526;42.690;23.322;2022-11-15T13:44:40;110.50;;;52.17;;
47762;SDS011;33526;42.690;23.322;2022-11-15T13:47:20;112.13;;;53.05;;
47762;SDS011;33526;42.690;23.322;2022-11-15T13:49:46;117.93;;;54.28;;
47762;SDS011;33526;42.690;23.322;2022-11-15T23:27:06;255.70;;;120.13;;
